This is the latest recevied weather packets stored in our database for station/object R2AKT-13. If no packets are shown the sender has not sent any weather packets the latest 10 day(s).
| Time | Temp. | Humidity | Pressure | Rain* | Wind** | Luminosity | Snow |
|---|---|---|---|---|---|---|---|
| 1777612439 | 3.33° C | 58% | 996.3 hPa | - | 0.45 m/s, 190° | - | - |
| 1777611874 | 3.33° C | 59% | 996.3 hPa | - | 1.34 m/s, 172° | - | - |
| 1777611339 | 2.78° C | 59% | 996.3 hPa | - | 1.34 m/s, 182° | - | - |
| 1777610779 | 2.78° C | 60% | 996.3 hPa | - | 1.34 m/s, 184° | - | - |
| 1777610259 | 2.78° C | 61% | 996.3 hPa | - | 0.89 m/s, 187° | - | - |
| 1777609694 | 2.78° C | 62% | 996.4 hPa | - | 0.89 m/s, 182° | - | - |
| 1777609134 | 2.22° C | 61% | 996.4 hPa | - | 1.34 m/s, 192° | - | - |
| 1777608584 | 2.22° C | 63% | 996.4 hPa | - | 0.89 m/s, 196° | - | - |
| 1777608087 | 2.22° C | 62% | 996.4 hPa | - | 1.79 m/s, 178° | - | - |
| 1777607588 | 2.22° C | 64% | 996.4 hPa | - | 0.45 m/s, 209° | - | - |
| 1777606994 | 2.22° C | 63% | 996.4 hPa | - | 1.34 m/s, 184° | - | - |
| 1777606488 | 1.67° C | 64% | 996.4 hPa | - | 1.34 m/s, 182° | - | - |
| 1777605988 | 1.67° C | 63% | 996.6 hPa | - | 2.24 m/s, 177° | - | - |
| 1777605488 | 1.67° C | 63% | 996.7 hPa | - | 1.79 m/s, 173° | - | - |
| 1777604908 | 1.67° C | 64% | 996.7 hPa | - | 1.34 m/s, 170° | - | - |
| 1777604339 | 1.67° C | 63% | 996.8 hPa | - | 1.34 m/s, 173° | - | - |
| 1777603748 | 2.22° C | 62% | 996.7 hPa | - | 0.45 m/s, 184° | - | - |
| 1777603187 | 2.22° C | 62% | 996.8 hPa | - | 0 m/s | - | - |
| 1777602664 | 2.22° C | 60% | 996.7 hPa | - | 0 m/s | - | - |
| 1777602154 | 2.22° C | 59% | 996.7 hPa | - | 0 m/s | - | - |
| 1777601554 | 2.78° C | 60% | 996.8 hPa | - | 0 m/s | - | - |
| 1777600984 | 1.11° C | 63% | 996.8 hPa | - | 0 m/s | - | - |
| 1777584734 | 2.22° C | 62% | 997 hPa | - | 0 m/s | - | - |
| 1777584248 | 2.22° C | 58% | 997 hPa | - | 0.45 m/s, 276° | - | - |
| 1777583748 | 2.78° C | 59% | 997 hPa | - | 0 m/s | - | - |
* Rain since midnight (hover to see other rain measurements)
** Current wind speed in m/s (hover to see current wind gust speed)